Date,TemperatureHighF,TemperatureAvgF,TemperatureLowF,DewpointHighF,DewpointAvgF,DewpointLowF,HumidityHigh,HumidityAvg,HumidityLow,PressureMaxIn,PressureMinIn,WindSpeedMaxMPH,WindSpeedAvgMPH,GustSpeedMaxMPH,PrecipitationSumIn
2013-1-1,19.0,7.5,-2.0,1.0,-3.6,-8.0,75,61,44,0.00,40.00,11,4,13,0.00
2013-1-2,30.0,19.2,6.0,26.0,12.4,-2.0,88,75,61,0.00,40.00,11,6,12,0.00
2013-1-3,31.0,20.5,10.0,25.0,13.2,5.0,84,74,61,0.00,40.00,24,9,27,0.00
2013-1-4,36.0,24.9,10.0,19.0,14.7,6.0,88,67,46,0.00,40.00,12,6,14,0.00
2013-1-5,38.0,29.4,20.0,29.0,21.4,15.0,88,73,59,0.00,40.00,23,9,29,0.00
2013-1-6,32.0,21.5,15.0,16.0,11.9,6.0,75,67,52,0.00,40.00,24,9,27,0.00
2013-1-7,45.0,33.0,23.0,27.0,19.7,15.0,88,60,40,0.00,40.00,21,8,28,0.00
2013-1-8,47.0,34.9,24.0,28.0,25.1,20.0,89,69,45,0.00,40.00,19,8,21,0.00
2013-1-9,48.0,37.1,31.0,29.0,26.5,23.0,82,67,41,0.00,40.00,17,5,20,0.00
2013-1-10,40.0,33.8,27.0,36.0,28.5,22.0,95,82,50,0.00,40.00,13,6,16,0.00
2013-1-11,53.0,44.3,35.0,47.0,39.4,34.0,95,84,58,0.00,40.00,22,11,29,0.00
2013-1-12,52.0,24.0,14.0,38.0,11.5,0.0,82,59,52,0.00,40.00,22,14,30,0.00
2013-1-13,19.0,12.6,7.0,5.0,0.3,-3.0,65,58,52,0.00,40.00,21,11,23,0.00
2013-1-14,30.0,17.5,6.0,9.0,3.1,-1.0,79,56,32,0.00,40.00,9,4,11,0.00
2013-1-15,34.0,22.9,14.0,12.0,7.1,4.0,77,53,32,0.00,40.00,11,5,13,0.00
2013-1-16,49.0,34.0,22.0,29.0,19.3,6.0,82,56,43,0.00,40.00,17,11,22,0.00
2013-1-17,40.0,31.1,23.0,26.0,14.1,6.0,82,53,30,0.00,40.00,13,4,16,0.00
2013-1-18,56.0,41.5,23.0,27.0,24.2,16.0,82,53,32,0.00,40.00,33,13,37,0.00
2013-1-19,53.0,40.5,18.0,28.0,24.1,6.0,68,53,34,0.00,40.00,33,15,40,0.00
2013-1-20,18.0,12.8,8.0,7.0,3.2,-1.0,77,66,55,0.00,40.00,20,11,24,0.00
2013-1-21,10.0,4.4,-3.0,1.0,-5.1,-13.0,75,64,56,0.00,40.00,27,14,33,0.00
2013-1-22,17.0,10.3,3.0,1.0,-2.6,-6.0,73,56,45,0.00,40.00,12,4,14,0.00
2013-1-23,27.0,16.7,5.0,14.0,5.3,-7.0,73,61,54,0.00,40.00,26,12,30,0.00
2013-1-24,20.0,10.8,3.0,2.0,-5.2,-10.0,60,49,38,0.00,40.00,18,10,21,0.00
2013-1-25,39.0,25.4,14.0,20.0,11.9,-1.0,77,57,46,0.00,40.00,25,11,30,0.00
2013-1-26,37.0,22.1,8.0,11.0,4.8,-1.0,67,49,33,0.00,40.00,14,8,18,0.00
2013-1-27,38.0,34.1,31.0,37.0,28.2,11.0,95,82,43,0.00,40.00,16,7,20,0.00
2013-1-28,50.0,37.9,35.0,49.0,36.6,33.0,95,95,95,0.00,40.00,13,6,17,0.00
2013-1-29,59.0,38.8,32.0,57.0,35.9,28.0,95,89,80,0.00,40.00,21,11,25,0.00
2013-1-30,32.0,23.2,14.0,29.0,15.5,4.0,93,73,55,0.00,40.00,33,21,42,0.00
2013-1-31,14.0,4.3,-1.0,4.0,-8.7,-14.0,64,54,52,0.00,40.00,30,19,37,0.00
2013-2-1,25.0,7.2,-7.0,10.0,-6.7,-17.0,63,53,45,0.00,40.00,16,8,19,0.00
2013-2-2,32.0,21.4,16.0,24.0,10.2,2.0,86,63,46,0.00,40.00,21,10,26,0.00
2013-2-3,34.0,25.7,17.0,24.0,10.5,6.0,77,54,33,0.00,40.00,30,12,37,0.00
2013-2-4,37.0,25.1,18.0,21.0,15.7,11.0,79,68,52,0.00,40.00,22,8,26,0.00
2013-2-5,44.0,31.8,21.0,28.0,22.8,15.0,91,71,52,0.00,40.00,23,8,27,0.00
2013-2-6,45.0,35.0,24.0,29.0,26.1,22.0,93,72,48,0.00,40.00,16,6,19,0.00
2013-2-7,40.0,33.6,28.0,37.0,30.0,23.0,95,87,63,0.00,40.00,26,11,29,0.00
2013-2-8,28.0,26.6,23.0,23.0,20.5,18.0,82,78,72,0.00,40.00,18,8,20,0.00
2013-2-9,38.0,31.4,27.0,31.0,25.2,22.0,90,78,63,0.00,40.00,18,12,24,0.00
2013-2-10,51.0,37.8,32.0,44.0,33.0,18.0,95,84,46,0.00,40.00,26,16,37,0.00
2013-2-11,32.0,30.1,28.0,18.0,17.0,15.0,66,58,54,0.00,40.00,29,18,38,0.00
2013-2-12,41.0,28.7,22.0,20.0,17.5,16.0,80,64,38,0.00,40.00,12,7,15,0.00
2013-2-13,50.0,43.0,26.0,24.0,21.9,20.0,82,45,32,0.00,40.00,13,8,17,0.00
2013-2-14,42.0,35.7,24.0,28.0,23.8,13.0,74,62,45,0.00,40.00,24,15,30,0.00
2013-2-15,28.0,22.1,16.0,14.0,8.7,5.0,69,57,45,0.00,40.00,20,11,22,0.00
2013-2-16,37.0,23.3,12.0,14.0,10.8,8.0,88,61,34,0.00,40.00,11,5,13,0.00
2013-2-17,47.0,33.5,20.0,21.0,17.8,13.0,83,56,33,0.00,40.00,21,10,24,0.00
2013-2-18,41.0,31.0,17.0,31.0,20.4,5.0,86,66,52,0.00,40.00,35,17,46,0.00
2013-2-19,22.0,15.8,9.0,6.0,1.3,-3.0,66,53,40,0.00,40.00,33,21,38,0.00
2013-2-20,22.0,12.8,1.0,4.0,-2.0,-7.0,68,53,39,0.00,40.00,16,6,18,0.00
2013-2-21,25.0,21.4,18.0,22.0,13.8,5.0,96,74,53,0.00,40.00,29,13,32,0.00
2013-2-22,27.0,23.8,22.0,23.0,17.1,11.0,96,77,61,0.00,40.00,18,9,21,0.00
2013-2-23,33.0,22.2,10.0,14.0,11.4,6.0,86,65,45,0.00,40.00,12,6,15,0.00
2013-2-24,43.0,27.4,11.0,25.0,16.8,9.0,90,67,39,0.00,40.00,7,4,8,0.00
2013-2-25,40.0,33.9,27.0,28.0,24.5,20.0,90,70,46,0.00,40.00,11,5,14,0.00
2013-2-26,33.0,30.8,28.0,29.0,27.0,23.0,96,86,70,0.00,40.00,19,13,24,0.00
2013-2-27,32.0,28.0,25.0,27.0,22.5,18.0,93,80,61,0.00,40.00,25,17,30,0.00
2013-2-28,30.0,25.9,23.0,21.0,19.0,17.0,80,75,66,0.00,40.00,22,15,26,0.00
2013-3-1,30.0,26.5,24.0,21.0,17.2,11.0,84,69,55,0.00,40.00,16,10,19,0.00
2013-3-2,36.0,25.0,17.0,15.0,12.7,10.0,79,61,39,0.00,40.00,16,7,21,0.00
2013-3-3,35.0,27.3,18.0,21.0,15.1,12.0,78,61,43,0.00,40.00,21,10,23,0.00
2013-3-4,39.0,33.1,29.0,27.0,25.2,21.0,88,74,55,0.00,40.00,19,12,22,0.00
2013-3-5,31.0,28.9,26.0,30.0,20.9,14.0,96,73,57,0.00,40.00,30,17,38,0.00
2013-3-6,35.0,26.0,19.0,19.0,15.9,13.0,83,67,46,0.00,40.00,24,9,28,0.00
2013-3-7,36.0,25.2,14.0,20.0,16.9,12.0,92,73,47,0.00,40.00,16,8,19,0.00
2013-3-8,44.0,34.0,23.0,33.0,24.4,20.0,91,70,49,0.00,40.00,17,10,21,0.00
2013-3-9,38.0,37.9,37.0,34.0,33.0,33.0,86,83,81,0.00,40.00,12,9,16,0.00
2013-3-13,34.0,30.2,26.0,15.0,12.3,9.0,62,48,38,0.00,40.00,11,4,12,0.00
2013-3-14,50.0,37.6,27.0,30.0,23.7,14.0,88,58,43,0.00,40.00,15,7,16,0.00
2013-3-15,62.0,41.9,29.0,38.0,33.0,27.0,94,75,38,0.00,40.00,17,4,21,0.00
2013-3-16,38.0,32.8,27.0,36.0,23.4,16.0,92,70,48,0.00,40.00,24,15,27,0.00
2013-3-17,40.0,31.0,22.0,25.0,17.4,13.0,71,58,43,0.00,40.00,23,14,26,0.00
2013-3-18,34.0,29.7,23.0,32.0,19.4,8.0,95,68,46,0.00,40.00,30,14,37,0.00
2013-3-19,41.0,27.0,17.0,18.0,7.9,3.0,65,46,26,0.00,40.00,19,10,23,0.00
2013-3-20,27.0,21.6,15.0,16.0,6.1,1.0,68,52,40,0.00,40.00,28,17,32,0.00
2013-3-21,37.0,23.9,13.0,13.0,6.3,2.0,63,49,30,0.00,40.00,12,6,14,0.00
2013-3-22,39.0,27.3,20.0,14.0,12.8,10.0,77,57,34,0.00,40.00,11,5,12,0.00
2013-3-27,47.0,40.4,32.0,23.0,19.4,17.0,70,44,32,0.00,40.00,12,6,16,0.00
2013-3-28,57.0,42.3,28.0,29.0,24.9,21.0,87,54,30,0.00,40.00,15,7,17,0.00
2013-3-29,64.0,47.8,31.0,33.0,27.7,23.0,93,52,24,0.00,40.00,16,7,17,0.00
2013-3-30,61.0,50.1,43.0,49.0,39.1,-99.9,93,70,41,0.00,40.00,19,7,21,0.00
2013-3-31,52.0,42.4,33.0,43.0,29.0,15.0,96,65,25,0.00,40.00,29,14,36,0.00
2013-4-1,40.0,31.1,23.0,19.0,13.2,11.0,67,49,32,0.00,40.00,20,13,25,0.00
2013-4-2,47.0,33.9,20.0,25.0,15.5,9.0,93,54,23,0.00,40.00,16,6,19,0.00
2013-4-3,52.0,37.8,26.0,21.0,17.0,13.0,77,47,24,0.00,40.00,14,6,16,0.00
2013-4-4,64.0,47.0,31.0,31.0,22.5,12.0,51,39,27,0.00,40.00,17,8,19,0.00
2013-4-5,61.0,48.3,34.0,29.0,26.4,22.0,77,46,26,0.00,40.00,19,10,22,0.00
2013-4-6,68.0,58.7,53.0,42.0,37.1,32.0,52,45,39,0.00,40.00,24,14,29,0.00
2013-4-7,68.0,53.2,36.0,39.0,36.2,34.0,93,57,31,0.00,40.00,16,9,18,0.00
2013-4-8,73.0,61.4,47.0,53.0,47.5,37.0,94,64,34,0.00,40.00,16,6,18,0.00
2013-4-9,67.0,53.5,43.0,61.0,51.1,41.0,94,92,71,0.00,40.00,21,9,23,0.00
2013-4-10,43.0,40.4,39.0,41.0,38.3,36.0,95,92,87,0.00,40.00,23,9,28,0.00
2013-4-11,40.0,37.7,35.0,38.0,34.3,28.0,95,88,71,0.00,40.00,16,7,19,0.00
2013-4-12,39.0,36.2,34.0,34.0,26.0,19.0,91,68,48,0.00,40.00,22,15,26,0.00
2013-4-13,52.0,41.8,30.0,29.0,22.3,16.0,66,47,34,0.00,40.00,17,9,19,0.00
2013-4-14,68.0,53.4,43.0,53.0,41.0,29.0,89,65,40,0.00,40.00,30,14,36,0.00
2013-4-15,52.0,42.5,38.0,40.0,28.6,20.0,77,59,42,0.00,40.00,17,9,22,0.00
2013-4-16,50.0,41.8,32.0,30.0,26.2,24.0,87,56,39,0.00,40.00,16,8,18,0.00
2013-4-17,46.0,42.7,40.0,45.0,38.3,27.0,96,86,46,0.00,40.00,29,12,36,0.00
2013-4-18,42.0,37.5,34.0,41.0,33.7,26.0,96,86,68,0.00,40.00,29,18,35,0.00
2013-4-19,44.0,36.2,30.0,26.0,19.6,14.0,73,53,34,0.00,40.00,30,21,38,0.00
2013-4-20,50.0,38.2,26.0,23.0,17.9,11.0,82,49,24,0.00,40.00,14,7,17,0.00
2013-4-21,67.0,53.4,41.0,37.0,29.3,20.0,57,41,24,0.00,40.00,26,15,30,0.00
2013-4-22,66.0,54.8,37.0,48.0,40.0,34.0,93,62,33,0.00,40.00,23,13,29,0.00
2013-4-23,43.0,36.5,33.0,35.0,25.1,18.0,91,66,42,0.00,40.00,26,18,29,0.00
2013-4-24,55.0,41.3,27.0,35.0,21.5,15.0,81,50,23,0.00,40.00,19,10,22,0.00
2013-4-25,62.0,48.4,32.0,31.0,26.7,22.0,85,48,25,0.00,40.00,19,8,22,0.00
2013-4-26,58.0,52.9,50.0,38.0,35.1,29.0,60,52,40,0.00,40.00,24,13,29,0.00
2013-5-9,72.0,62.6,55.0,59.0,54.6,49.0,95,77,50,0.00,40.00,22,10,26,0.00
2013-5-10,68.0,55.5,48.0,51.0,43.2,-99.9,93,70,37,0.00,40.00,21,10,23,0.00
2013-5-11,56.0,51.9,44.0,48.0,26.1,-99.9,92,42,21,0.00,40.00,36,18,42,0.00
2013-5-12,62.0,49.2,36.0,32.0,21.6,16.0,62,37,19,0.00,40.00,18,7,22,0.00
2013-5-13,76.0,59.5,39.0,46.0,36.8,29.0,91,48,24,0.00,40.00,22,8,25,0.00
2013-5-14,94.0,78.6,62.0,58.0,52.3,45.0,74,43,25,0.00,40.00,24,10,29,0.00
2013-5-15,83.0,74.4,63.0,50.0,42.4,38.0,64,33,21,0.00,40.00,14,8,17,0.00
2013-5-16,81.0,66.3,61.0,64.0,37.1,-99.9,71,61,47,0.00,40.00,15,7,19,0.00
2013-5-17,81.0,70.6,63.0,62.0,53.4,-99.9,91,66,39,0.00,40.00,15,7,17,0.00
2013-5-18,83.0,71.6,59.0,63.0,58.0,55.0,93,66,39,0.00,40.00,19,8,23,0.00
2013-5-19,87.0,73.1,60.0,63.0,59.0,52.0,94,65,33,0.00,40.00,29,12,44,0.00
2013-5-20,79.0,66.4,60.0,63.0,56.2,51.0,93,73,39,0.00,40.00,25,11,34,0.00
2013-5-21,69.0,62.6,59.0,59.0,48.2,40.0,91,62,40,0.00,40.00,19,10,23,0.00
2013-5-22,61.0,57.1,54.0,56.0,50.9,45.0,92,80,59,0.00,40.00,16,10,19,0.00
2013-5-23,71.0,60.4,52.0,52.0,44.7,35.0,94,62,28,0.00,40.00,19,10,23,0.00
2013-5-24,70.0,60.0,48.0,47.0,41.9,37.0,71,53,34,0.00,40.00,23,10,27,0.00
2013-5-25,59.0,55.5,53.0,49.0,46.4,43.0,89,73,55,0.00,40.00,16,11,20,0.00
2013-6-4,66.0,64.5,58.0,62.0,59.4,56.0,93,84,74,0.00,40.00,17,8,22,0.00
2013-6-5,63.0,62.3,62.0,61.0,60.3,60.0,93,93,93,0.00,40.00,11,4,14,0.00
2013-6-11,86.0,80.7,73.0,70.0,66.2,61.0,86,63,49,0.00,40.00,15,6,18,0.00
2013-6-12,90.0,76.8,66.0,70.0,65.5,54.0,91,70,45,0.00,40.00,29,11,39,0.00
2013-6-13,86.0,71.7,61.0,62.0,53.8,49.0,80,56,30,0.00,40.00,24,8,30,0.00
2013-6-14,75.0,68.1,63.0,65.0,59.0,53.0,94,74,52,0.00,40.00,26,10,32,0.00
2013-6-15,83.0,71.8,64.0,70.0,64.0,59.0,94,78,53,0.00,40.00,22,6,26,0.00
2013-6-16,90.0,73.6,67.0,69.0,60.7,45.0,93,71,25,0.00,40.00,11,5,14,0.00
2013-6-17,89.0,73.1,61.0,66.0,56.2,45.0,93,63,25,0.00,40.00,16,5,18,0.00
2013-6-18,89.0,74.0,61.0,59.0,53.1,46.0,86,51,30,0.00,40.00,13,5,20,0.00
2013-6-19,83.0,72.9,64.0,63.0,59.9,53.0,91,66,36,0.00,40.00,17,7,19,0.00
2013-6-20,87.0,75.2,68.0,64.0,61.1,59.0,79,63,40,0.00,40.00,21,11,30,0.00
2013-6-25,87.0,82.5,78.0,73.0,68.8,62.0,83,64,43,0.00,40.00,16,9,19,0.00
2013-6-26,90.0,81.2,74.0,75.0,67.9,58.0,89,67,34,0.00,40.00,19,6,26,0.00
2013-6-27,86.0,76.5,67.0,67.0,64.1,58.0,93,68,40,0.00,40.00,14,5,18,0.00
2013-6-28,85.0,77.8,70.0,64.0,53.8,46.0,74,46,28,0.00,40.00,29,16,36,0.00
2013-6-29,77.0,70.7,66.0,64.0,54.9,50.0,78,58,43,0.00,40.00,31,15,37,0.00
2013-6-30,79.0,69.2,60.0,56.0,49.9,41.0,85,54,29,0.00,40.00,16,9,21,0.00
2013-7-1,83.0,70.2,57.0,58.0,49.5,43.0,85,52,29,0.00,40.00,15,6,19,0.00
2013-7-2,85.0,66.8,56.0,58.0,53.7,48.0,94,70,28,0.00,40.00,14,5,17,0.00
2013-7-16,92.0,86.8,79.0,70.0,64.9,62.0,73,49,39,0.00,40.00,11,6,13,0.00
2013-7-17,95.0,81.7,72.0,73.0,67.6,60.0,91,66,33,0.00,40.00,12,3,14,0.00
2013-7-18,95.0,83.4,74.0,72.0,66.0,60.0,88,59,33,0.00,40.00,17,7,20,0.00
2013-7-19,95.0,84.4,77.0,70.0,64.4,57.0,68,52,31,0.00,40.00,18,8,20,0.00
2013-7-20,91.0,77.2,64.0,65.0,56.2,-99.9,93,54,25,0.00,40.00,10,3,12,0.00
2013-7-21,79.0,72.1,65.0,70.0,64.4,60.0,91,78,56,0.00,40.00,14,4,16,0.00
2013-7-22,94.0,77.2,65.0,70.0,65.3,60.0,93,71,37,0.00,40.00,27,5,33,0.00
2013-7-23,80.0,70.1,64.0,67.0,57.1,51.0,93,67,39,0.00,40.00,17,6,21,0.00
2013-7-24,86.0,69.5,58.0,63.0,54.6,49.0,93,63,30,0.00,40.00,10,4,12,0.00
2013-7-25,84.0,72.1,61.0,63.0,59.2,56.0,90,66,39,0.00,40.00,15,5,18,0.00
2013-7-26,78.0,70.4,63.0,67.0,56.2,45.0,93,64,33,0.00,40.00,24,10,28,0.00
2013-7-27,71.0,62.7,53.0,52.0,45.2,38.0,89,57,32,0.00,40.00,19,10,23,0.00
2013-7-28,78.0,63.6,50.0,53.0,45.0,41.0,90,56,28,0.00,40.00,15,6,21,0.00
2013-7-29,74.0,64.9,54.0,59.0,52.1,48.0,92,66,41,0.00,40.00,14,6,16,0.00
2013-7-30,73.0,66.8,63.0,68.0,63.5,60.0,93,89,77,0.00,40.00,9,4,11,0.00
2013-7-31,86.0,71.1,64.0,66.0,62.3,56.0,93,77,38,0.00,40.00,8,3,9,0.00
2013-8-1,89.0,71.5,61.0,66.0,61.5,49.0,93,74,25,0.00,40.00,7,4,9,0.00
2013-8-2,86.0,71.4,67.0,65.0,61.0,52.0,88,72,41,0.00,40.00,13,3,19,0.00
2013-8-3,83.0,72.0,63.0,59.0,52.3,46.0,78,53,30,0.00,40.00,8,4,11,0.00
2013-8-4,82.0,66.9,57.0,64.0,55.2,50.0,93,70,33,0.00,40.00,9,3,11,0.00
2013-8-5,86.0,73.6,64.0,69.0,64.0,54.0,91,73,48,0.00,40.00,14,4,18,0.00
2013-8-6,92.0,75.7,68.0,72.0,67.7,62.0,93,80,39,0.00,40.00,14,3,16,0.00
2013-8-7,84.0,73.1,68.0,68.0,62.2,55.0,93,72,39,0.00,40.00,14,5,17,0.00
2013-8-8,85.0,69.2,61.0,63.0,57.7,53.0,88,69,34,0.00,40.00,6,2,7,0.00
2013-8-9,83.0,70.8,64.0,64.0,60.7,50.0,93,73,34,0.00,40.00,12,4,14,0.00
2013-8-10,86.0,66.0,58.0,62.0,57.2,47.0,93,77,32,0.00,40.00,10,3,11,0.00
2013-8-11,88.0,74.5,63.0,60.0,57.9,55.0,81,58,34,0.00,40.00,12,7,16,0.00
2013-8-12,77.0,69.6,66.0,65.0,62.6,58.0,92,80,56,0.00,40.00,16,8,19,0.00
2013-8-19,85.0,69.7,70.0,61.0,42.0,-99.9,74,50,37,0.00,40.00,17,8,20,0.00
2013-8-20,91.0,76.0,69.0,65.0,58.3,-99.9,79,61,38,0.00,40.00,18,10,21,0.00
2013-8-21,93.0,80.1,72.0,66.0,63.9,61.0,79,60,35,0.00,40.00,17,8,21,0.00
2013-8-22,82.0,75.9,71.0,69.0,66.5,63.0,91,74,54,0.00,40.00,10,4,11,0.00
2013-8-23,88.0,75.1,67.0,71.0,66.7,62.0,93,78,42,0.00,40.00,15,6,17,0.00
2013-8-25,81.0,80.2,80.0,67.0,66.0,65.0,63,63,62,0.00,40.00,12,9,16,0.00
2013-8-26,98.0,83.3,72.0,70.0,65.8,60.0,89,59,30,0.00,40.00,12,7,16,0.00
2013-8-27,96.0,82.2,77.0,67.0,66.4,65.0,71,60,38,0.00,40.00,18,10,22,0.00
2013-8-28,100.0,91.0,79.0,66.0,63.0,61.0,59,40,30,0.00,40.00,10,6,14,0.00
2013-8-29,95.0,81.6,71.0,72.0,67.3,64.0,88,65,37,0.00,40.00,14,5,17,0.00
2013-8-30,101.0,83.5,73.0,75.0,69.0,59.0,89,67,25,0.00,40.00,16,5,18,0.00
2013-8-31,96.0,77.1,69.0,72.0,61.0,-99.9,93,67,26,0.00,40.00,9,4,12,0.00
2013-9-1,83.0,73.4,67.0,70.0,61.0,51.0,95,69,33,0.00,40.00,27,10,34,0.00
2013-9-2,81.0,62.8,56.0,58.0,53.8,44.0,93,75,29,0.00,40.00,9,5,9,0.00
2013-9-3,83.0,61.1,53.0,57.0,52.8,49.0,93,77,31,0.00,40.00,6,2,7,0.00
2013-9-4,93.0,72.8,61.0,66.0,56.2,53.0,85,61,27,0.00,40.00,9,2,10,0.00
2013-9-5,86.0,71.1,68.0,66.0,64.7,59.0,91,82,39,0.00,40.00,4,1,6,0.00
2013-9-6,91.0,75.5,65.0,66.0,59.2,53.0,86,62,29,0.00,40.00,16,6,18,0.00
2013-9-7,97.0,79.1,72.0,71.0,60.0,-99.9,84,56,35,0.00,40.00,16,6,17,0.00
2013-9-8,87.0,77.1,71.0,71.0,68.8,65.0,93,77,50,0.00,40.00,12,6,16,0.00
2013-9-9,100.0,79.2,71.0,71.0,64.7,54.0,92,69,23,0.00,40.00,15,6,19,0.00
2013-9-10,97.0,84.3,73.0,64.0,58.4,54.0,64,43,29,0.00,40.00,19,9,26,0.00
2013-9-11,88.0,76.8,70.0,69.0,65.3,58.0,90,69,41,0.00,40.00,9,4,11,0.00
2013-9-12,80.0,69.9,63.0,66.0,51.2,38.0,87,56,23,0.00,40.00,18,7,23,0.00
2013-9-13,76.0,61.6,52.0,51.0,45.2,38.0,90,59,28,0.00,40.00,7,3,10,0.00
2013-9-14,78.0,59.3,46.0,45.0,37.7,-99.9,86,52,25,0.00,40.00,15,5,17,0.00
2013-9-15,69.0,65.2,63.0,62.0,50.3,43.0,93,60,42,0.00,40.00,18,10,22,0.00
2013-9-16,63.0,58.8,54.0,54.0,50.5,46.0,94,75,55,0.00,40.00,13,7,17,0.00
2013-9-17,66.0,59.2,54.0,64.0,56.9,52.0,95,92,88,0.00,40.00,14,8,16,0.00
2013-9-18,78.0,68.2,65.0,68.0,64.2,62.0,93,88,72,0.00,40.00,13,9,15,0.00
2013-9-19,86.0,75.4,62.0,69.0,65.7,61.0,94,74,46,0.00,40.00,17,10,24,0.00
2013-9-20,70.0,61.2,54.0,61.0,47.2,42.0,94,62,39,0.00,40.00,21,11,27,0.00
2013-9-21,75.0,54.9,46.0,48.0,38.6,-99.9,92,64,24,0.00,40.00,8,3,9,0.00
2013-9-22,77.0,62.9,50.0,51.0,47.1,45.0,83,60,34,0.00,40.00,15,8,18,0.00
2013-9-23,75.0,62.2,52.0,50.0,46.9,42.0,90,62,32,0.00,40.00,20,9,24,0.00
2013-9-24,74.0,63.4,55.0,61.0,53.4,49.0,86,71,48,0.00,40.00,11,5,15,0.00
2013-9-29,74.0,52.5,45.0,55.0,44.8,37.0,95,79,26,0.00,40.00,9,3,12,0.00
2013-9-30,77.0,57.6,49.0,56.0,47.8,42.0,92,73,30,0.00,40.00,13,7,18,0.00
2013-10-1,67.0,65.7,64.0,56.0,51.8,49.0,70,61,55,0.00,40.00,2,2,3,0.00
2013-10-2,85.0,71.6,58.0,61.0,54.0,46.0,88,56,40,0.00,40.00,14,7,18,0.00
2013-10-3,78.0,69.9,66.0,68.0,62.2,55.0,93,79,45,0.00,40.00,12,5,17,0.00
2013-10-4,78.0,73.7,64.0,70.0,67.2,63.0,94,80,68,0.00,40.00,17,11,22,0.00
2013-10-5,68.0,53.5,47.0,54.0,35.0,29.0,70,50,37,0.00,40.00,17,10,22,0.00
2013-10-10,77.0,59.6,47.0,49.0,45.7,41.0,90,64,28,0.00,40.00,15,6,18,0.00
2013-10-11,74.0,65.1,56.0,63.0,56.4,49.0,90,74,58,0.00,40.00,24,11,29,0.00
2013-10-12,67.0,57.5,48.0,64.0,35.2,-99.9,88,49,25,0.00,40.00,16,8,24,0.00
2013-10-13,67.0,46.0,37.0,42.0,36.8,29.0,94,77,25,0.00,40.00,5,2,6,0.00
2013-10-14,65.0,52.1,41.0,44.0,35.3,31.0,79,55,31,0.00,40.00,22,10,30,0.00
2013-10-15,60.0,51.7,46.0,58.0,43.2,35.0,93,74,57,0.00,40.00,21,12,26,0.00
2013-10-16,51.0,46.1,40.0,43.0,39.8,36.0,91,79,63,0.00,40.00,14,8,17,0.00
2013-10-17,58.0,43.1,36.0,42.0,37.8,29.0,95,83,37,0.00,40.00,15,4,19,0.00
2013-10-18,50.0,44.1,39.0,41.0,30.6,23.0,90,62,35,0.00,40.00,17,8,20,0.00
2013-10-19,58.0,43.3,34.0,37.0,27.3,-99.9,92,59,26,0.00,40.00,16,6,21,0.00
2013-10-20,62.0,48.7,38.0,40.0,35.4,33.0,86,63,37,0.00,40.00,14,7,17,0.00
2013-10-21,50.0,42.8,37.0,35.0,27.6,20.0,83,57,35,0.00,40.00,20,9,26,0.00
2013-10-22,44.0,40.4,38.0,39.0,34.6,25.0,95,80,58,0.00,40.00,16,8,18,0.00
2013-10-23,42.0,36.9,33.0,37.0,31.3,25.0,95,81,53,0.00,40.00,12,6,14,0.00
2013-10-24,47.0,37.7,31.0,30.0,26.1,23.0,88,65,40,0.00,40.00,16,8,22,0.00
2013-10-25,56.0,38.9,27.0,28.0,24.6,22.0,93,64,28,0.00,40.00,19,6,22,0.00
2013-10-26,52.0,44.3,35.0,32.0,23.2,-99.9,69,46,33,0.00,40.00,24,11,27,0.00
2013-10-27,63.0,38.3,28.0,32.0,27.4,25.0,95,71,25,0.00,40.00,14,4,18,0.00
2013-10-28,55.0,43.8,36.0,35.0,30.0,-99.9,92,64,40,0.00,40.00,15,8,20,0.00
2013-10-29,57.0,46.7,39.0,51.0,39.9,33.0,95,78,59,0.00,40.00,16,9,19,0.00
2013-10-30,61.0,55.9,52.0,59.0,54.1,50.0,95,94,92,0.00,40.00,14,7,19,0.00
2013-10-31,52.0,45.7,41.0,51.0,41.0,36.0,94,84,65,0.00,40.00,13,7,15,0.00
2013-11-5,58.0,49.4,43.0,56.0,45.2,37.0,95,86,68,0.00,40.00,16,8,21,0.00
2013-11-6,45.0,37.2,31.0,41.0,30.3,21.0,94,78,41,0.00,40.00,26,13,28,0.00
2013-11-7,46.0,34.4,29.0,31.0,25.9,18.0,94,74,48,0.00,40.00,21,6,24,0.00
2013-11-8,53.0,34.2,28.0,26.0,21.7,19.0,77,62,35,0.00,40.00,21,7,25,0.00
2013-11-9,58.0,48.1,40.0,33.0,27.5,-99.9,58,47,34,0.00,40.00,21,11,30,0.00
2013-11-10,49.0,41.6,29.0,27.0,24.5,23.0,82,53,36,0.00,40.00,10,6,14,0.00
2013-11-11,49.0,34.2,19.0,34.0,23.2,12.0,87,65,41,0.00,40.00,24,13,28,0.00
2013-11-12,31.0,19.1,11.0,13.0,9.6,7.0,85,68,43,0.00,40.00,11,7,14,0.00
2013-11-13,50.0,33.7,19.0,19.0,12.6,8.0,66,44,29,0.00,40.00,19,11,26,0.00
2013-11-14,53.0,43.6,36.0,27.0,20.7,14.0,59,40,32,0.00,40.00,16,7,20,0.00
2013-11-15,57.0,43.4,30.0,37.0,29.1,26.0,89,61,34,0.00,40.00,16,7,17,0.00
2013-11-16,68.0,56.0,44.0,55.0,45.0,-99.9,88,71,53,0.00,40.00,22,13,26,0.00
2013-11-17,51.0,47.7,42.0,49.0,39.1,32.0,94,73,55,0.00,40.00,22,10,25,0.00
2013-11-18,47.0,38.6,31.0,32.0,27.9,25.0,84,67,43,0.00,40.00,19,9,22,0.00
2013-11-19,48.0,37.4,30.0,28.0,26.8,23.0,88,69,38,0.00,40.00,19,9,24,0.00
2013-11-20,47.0,40.5,34.0,37.0,31.5,20.0,95,73,35,0.00,40.00,21,11,25,0.00
2013-11-21,38.0,31.1,26.0,37.0,29.0,23.0,96,92,85,0.00,40.00,22,10,26,0.00
2013-11-22,25.0,20.4,16.0,21.0,12.3,7.0,90,72,50,0.00,40.00,22,10,25,0.00
2013-11-23,19.0,13.6,7.0,8.0,1.0,-99.9,82,61,47,0.00,40.00,17,10,21,0.00
2013-11-24,27.0,13.9,4.0,7.0,3.3,0.0,87,66,33,0.00,40.00,17,7,19,0.00
2013-11-25,37.0,30.1,25.0,26.0,16.5,6.0,83,58,43,0.00,40.00,17,8,20,0.00
2013-11-26,29.0,25.0,18.0,24.0,12.5,3.0,90,61,39,0.00,40.00,32,13,37,0.00
2013-11-27,28.0,20.5,10.0,9.0,6.1,4.0,77,55,40,0.00,40.00,13,7,15,0.00
2013-11-28,32.0,25.4,17.0,15.0,11.9,9.0,85,57,44,0.00,40.00,20,9,24,0.00
2013-11-29,40.0,26.0,12.0,22.0,15.7,11.0,93,69,40,0.00,40.00,15,6,16,0.00
2013-11-30,54.0,36.7,29.0,31.0,21.1,-99.9,83,59,35,0.00,40.00,11,5,13,0.00
2013-12-1,42.0,34.0,25.0,28.0,24.8,22.0,90,70,48,0.00,40.00,7,4,9,0.00
2013-12-2,54.0,39.0,31.0,35.0,31.1,27.0,89,75,46,0.00,40.00,16,5,18,0.00
2013-12-3,41.0,37.6,33.0,40.0,36.0,31.0,96,94,89,0.00,40.00,8,4,11,0.00
2013-12-4,38.0,30.7,18.0,37.0,27.1,8.0,95,87,65,0.00,40.00,22,9,28,0.00
2013-12-5,18.0,13.0,8.0,9.0,-0.2,-5.0,66,55,48,0.00,40.00,26,16,37,0.00
2013-12-6,12.0,7.3,1.0,-4.0,-6.8,-10.0,63,52,45,0.00,40.00,20,13,22,0.00
2013-12-7,13.0,4.2,-3.0,-6.0,-10.8,-99.9,66,54,35,0.00,40.00,14,7,18,0.00
2013-12-8,18.0,14.6,11.0,14.0,6.2,-6.0,90,70,46,0.00,40.00,17,9,21,0.00
2013-12-9,15.0,5.1,-2.0,11.0,-4.4,-12.0,86,66,43,0.00,40.00,18,9,26,0.00
2013-12-10,23.0,17.6,6.0,10.0,2.5,-7.0,61,52,41,0.00,40.00,19,8,24,0.00
2013-12-11,24.0,8.4,1.0,21.0,-2.4,-10.0,86,61,47,0.00,40.00,24,9,27,0.00
2013-12-12,31.0,18.5,2.0,12.0,4.1,-7.0,76,54,43,0.00,40.00,12,6,17,0.00
2013-12-13,31.0,25.1,13.0,22.0,18.3,10.0,88,76,66,0.00,40.00,13,6,17,0.00
2013-12-14,24.0,19.2,14.0,18.0,12.0,-99.9,92,77,68,0.00,40.00,19,12,21,0.00
2013-12-15,20.0,14.8,10.0,9.0,5.3,3.0,76,66,52,0.00,40.00,12,5,14,0.00
2013-12-16,31.0,21.6,13.0,23.0,16.3,8.0,92,80,68,0.00,40.00,11,7,12,0.00
2013-12-17,37.0,28.5,21.0,24.0,20.7,9.0,88,73,37,0.00,40.00,27,8,32,0.00
2013-12-18,50.0,34.7,19.0,26.0,18.4,9.0,72,53,36,0.00,40.00,21,10,24,0.00
2013-12-19,38.0,32.5,27.0,30.0,27.4,25.0,95,82,65,0.00,40.00,12,8,14,0.00
2013-12-20,28.0,23.3,20.0,26.0,21.6,17.0,95,93,88,0.00,40.00,16,9,17,0.00
2013-12-21,20.0,20.0,20.0,17.0,16.1,16.0,89,85,84,0.00,40.00,10,6,11,0.00
2013-12-24,17.0,4.9,-17.0,15.0,-6.3,-25.0,89,60,47,0.00,40.00,16,9,21,0.00
2013-12-25,35.0,24.6,18.0,26.0,18.1,11.0,93,77,55,0.00,40.00,17,8,21,0.00
2013-12-26,38.0,30.1,19.0,22.0,17.8,10.0,81,62,47,0.00,40.00,11,6,14,0.00
2013-12-27,49.0,34.2,18.0,23.0,20.7,16.0,92,61,34,0.00,40.00,10,5,14,0.00
2013-12-28,50.0,40.9,28.0,26.0,21.7,-99.9,85,50,37,0.00,40.00,27,10,33,0.00
2013-12-29,24.0,8.6,0.0,20.0,-3.5,-14.0,85,59,36,0.00,40.00,33,20,39,0.00
2013-12-30,17.0,8.7,-2.0,12.0,0.5,-14.0,85,70,49,0.00,40.00,12,6,16,0.00
2013-12-31,15.0,10.0,6.0,8.0,4.1,2.0,85,77,67,0.00,40.00,16,8,19,0.00
2014-1-1,10.0,7.4,4.0,4.0,1.8,-2.0,84,77,73,0.00,40.00,16,11,18,0.00
2014-1-2,8.0,3.2,-7.0,-2.0,-5.5,-13.0,78,67,52,0.00,40.00,16,10,17,0.00